Time;durP1;ratioP1;P1;durP2;ratioP2;P2;SDS_P1;SDS_P2;PMS_P1;PMS_P2;Temp;Humidity;BMP_temperature;BMP_pressure;BME280_temperature;BME280_humidity;BME280_pressure;Samples;Min_cycle;Max_cycle;Signal;HPM_P1;HPM_P2
2022/06/03 00:01:43;;;;;;;;;;;;;;;19.45;50.25;99890.56;6247563;22;19988;-75
2022/06/03 00:04:17;;;;;;;;;;;;;;;19.41;50.39;99894.63;6245764;23;19930;-76
2022/06/03 00:06:43;;;;;;;;;;;;;;;19.37;50.42;99895.97;6247528;22;19919;-75
2022/06/03 00:09:29;;;;;;;;;;;;;;;19.34;50.41;99896.28;6245574;23;20240;-75
2022/06/03 00:12:01;;;;;;;;;;;;;;;19.33;50.59;99891.88;6245639;23;19951;-75
2022/06/03 00:14:27;;;;;;;;;;;;;;;19.29;50.68;99888.63;6220177;23;20343;-75
2022/06/03 00:17:21;;;;;;;;;;;;;;;19.25;50.88;99891.84;6245329;23;19950;-75
2022/06/03 00:19:53;;;;;;;;;;;;;;;19.21;50.55;99891.31;6246216;23;19994;-75
2022/06/03 00:22:18;;;;;;;;;;;;;;;19.18;50.52;99891.66;6247279;23;19923;-74
2022/06/03 00:25:04;;;;;;;;;;;;;;;19.20;50.45;99896.94;6220439;23;20026;-74
2022/06/03 00:27:49;;;;;;;;;;;;;;;19.14;50.69;99899.28;6245429;23;19947;-75
2022/06/03 00:30:14;;;;;;;;;;;;;;;19.11;50.23;99891.47;6246266;23;19919;-75
2022/06/03 00:32:59;;;;;;;;;;;;;;;19.09;50.28;99893.50;6248211;23;19920;-75
2022/06/03 00:35:27;;;;;;;;;;;;;;;19.10;49.89;99889.75;6249693;22;19926;-75
2022/06/03 00:37:53;;;;;;;;;;;;;;;19.12;50.12;99887.75;6250052;22;19941;-75
2022/06/03 00:40:40;;;;;;;;;;;;;;;19.21;49.89;99888.63;6247011;22;20009;-75
2022/06/03 00:43:12;;;;;;;;;;;;;;;19.27;49.56;99884.41;6247070;23;19919;-75
2022/06/03 00:45:55;;;;;;;;;;;;;;;19.34;49.21;99886.28;6245200;23;19923;-76
2022/06/03 00:48:42;;;;;;;;;;;;;;;19.41;48.98;99892.75;6220428;23;19966;-74
2022/06/03 00:51:14;;;;;;;;;;;;;;;19.55;48.80;99888.53;6247884;23;20290;-75
2022/06/03 00:53:50;;;;;;;;;;;;;;;19.63;48.79;99891.31;6246970;22;20030;-75
2022/06/03 00:56:34;;;;;;;;;;;;;;;19.71;48.55;99884.16;6246566;23;19919;-75
2022/06/03 00:59:19;;;;;;;;;;;;;;;19.75;48.25;99886.41;6219843;23;20006;-75
2022/06/03 01:02:03;;;;;;;;;;;;;;;19.77;48.27;99887.06;6220157;23;19919;-75
2022/06/03 01:04:36;;;;;;;;;;;;;;;19.75;48.08;99889.09;6244794;23;20296;-74
2022/06/03 01:07:20;;;;;;;;;;;;;;;19.73;47.97;99880.28;6220295;23;19926;-75
2022/06/03 01:09:52;;;;;;;;;;;;;;;19.67;47.78;99891.81;6245238;23;19954;-75
2022/06/03 01:12:30;;;;;;;;;;;;;;;19.62;48.04;99889.59;6245628;23;19920;-75
2022/06/03 01:15:02;;;;;;;;;;;;;;;19.68;47.81;99887.25;6245317;23;19978;-75
2022/06/03 01:17:48;;;;;;;;;;;;;;;19.73;47.69;99885.69;6246029;23;20315;-75
2022/06/03 01:20:22;;;;;;;;;;;;;;;19.72;47.93;99888.59;6221006;23;19958;-74
2022/06/03 01:22:57;;;;;;;;;;;;;;;19.79;47.63;99884.19;6220689;23;19927;-73
2022/06/03 01:25:43;;;;;;;;;;;;;;;19.87;47.34;99884.19;6219946;23;19919;-75
2022/06/03 01:28:09;;;;;;;;;;;;;;;19.95;47.22;99884.19;6244641;23;20010;-74
2022/06/03 01:30:44;;;;;;;;;;;;;;;19.96;47.12;99885.88;6244923;23;19947;-75
2022/06/03 01:33:28;;;;;;;;;;;;;;;19.97;47.11;99887.59;6245119;23;19919;-75
2022/06/03 01:36:07;;;;;;;;;;;;;;;20.05;47.21;99887.56;6246405;23;19927;-75
2022/06/03 01:38:51;;;;;;;;;;;;;;;20.12;47.08;99877.75;6245264;23;20294;-75
2022/06/03 01:41:23;;;;;;;;;;;;;;;20.17;47.03;99882.66;6244160;23;19920;-75
2022/06/03 01:44:07;;;;;;;;;;;;;;;20.26;47.05;99881.59;6244394;23;19924;-76
2022/06/03 01:46:38;;;;;;;;;;;;;;;20.34;46.79;99883.47;6219980;23;19919;-74
2022/06/03 01:49:21;;;;;;;;;;;;;;;20.35;46.82;99883.31;6245918;22;20064;-74
2022/06/03 01:51:58;;;;;;;;;;;;;;;20.37;46.82;99878.53;6244956;23;19993;-77
2022/06/03 01:54:42;;;;;;;;;;;;;;;20.41;46.89;99881.75;6219403;23;20288;-77
2022/06/03 01:57:24;;;;;;;;;;;;;;;20.43;46.57;99884.31;6244805;23;19942;-76
2022/06/03 01:59:50;;;;;;;;;;;;;;;20.41;47.03;99889.91;6244629;23;19919;-76
2022/06/03 02:02:31;;;;;;;;;;;;;;;20.51;46.95;99887.88;6244142;23;20323;-76
2022/06/03 02:05:15;;;;;;;;;;;;;;;20.58;46.92;99888.03;6245878;22;19920;-78
2022/06/03 02:07:57;;;;;;;;;;;;;;;20.65;47.03;99885.44;6244861;23;19920;-77
2022/06/03 02:10:29;;;;;;;;;;;;;;;20.74;47.36;99890.69;6219852;23;19927;-76
2022/06/03 02:13:14;;;;;;;;;;;;;;;20.85;47.19;99884.03;6219309;23;19924;-76
2022/06/03 02:15:58;;;;;;;;;;;;;;;20.89;47.04;99873.66;6245935;23;20397;-77
2022/06/03 02:18:23;;;;;;;;;;;;;;;20.99;46.84;99877.03;6245988;23;19920;-76
2022/06/03 02:20:49;;;;;;;;;;;;;;;21.06;47.09;99878.84;6245585;23;19919;-76
2022/06/03 02:23:33;;;;;;;;;;;;;;;21.14;47.17;99880.69;6246658;23;19919;-76
2022/06/03 02:26:08;;;;;;;;;;;;;;;21.27;47.09;99874.66;6221294;23;19945;-77
2022/06/03 02:28:46;;;;;;;;;;;;;;;21.42;47.07;99878.31;6220953;23;19919;-75
2022/06/03 02:31:13;;;;;;;;;;;;;;;21.56;46.54;99874.84;6220939;23;19942;-75
2022/06/03 02:33:55;;;;;;;;;;;;;;;21.71;46.42;99871.34;6220868;23;19931;-76
2022/06/03 02:36:40;;;;;;;;;;;;;;;21.83;45.80;99865.28;6221009;23;19927;-76
2022/06/03 02:39:21;;;;;;;;;;;;;;;22.02;45.67;99880.25;6246570;23;19920;-76
2022/06/03 02:41:56;;;;;;;;;;;;;;;22.01;45.39;99877.72;6220934;23;20421;-76
2022/06/03 02:44:22;;;;;;;;;;;;;;;21.91;45.51;99877.97;6246280;23;19995;-77
2022/06/03 02:47:06;;;;;;;;;;;;;;;21.92;45.61;99870.63;6245897;23;20307;-77
2022/06/03 02:49:50;;;;;;;;;;;;;;;21.88;45.74;99877.47;6220891;23;19920;-75
2022/06/03 02:52:36;;;;;;;;;;;;;;;21.97;45.84;99871.81;6220913;23;19920;-78
2022/06/03 02:55:14;;;;;;;;;;;;;;;22.02;45.95;99868.53;6246335;23;19924;-79
2022/06/03 02:57:50;;;;;;;;;;;;;;;22.04;45.97;99872.75;6220740;23;19919;-76
2022/06/03 03:00:38;;;;;;;;;;;;;;;22.11;45.91;99875.56;6247396;22;20379;-76
2022/06/03 03:03:17;;;;;;;;;;;;;;;22.16;45.58;99875.91;6237640;23;19943;-76
2022/06/03 03:05:52;;;;;;;;;;;;;;;22.23;45.58;99871.41;6220971;23;19923;-76
2022/06/03 03:08:55;;;;;;;;;;;;;;;22.29;45.41;99869.81;6247684;22;19992;-78
2022/06/03 03:11:44;;;;;;;;;;;;;;;22.36;45.72;99878.94;6139841;23;19927;-77
2022/06/03 03:14:10;;;;;;;;;;;;;;;22.40;45.64;99877.53;6202349;23;19930;-77
2022/06/03 03:16:47;;;;;;;;;;;;;;;22.45;45.53;99858.75;6222932;23;19919;-77
2022/06/03 03:19:12;;;;;;;;;;;;;;;22.53;45.71;99871.47;6221556;23;20327;-76
2022/06/03 03:22:02;;;;;;;;;;;;;;;22.60;45.52;99872.38;6246150;23;19926;-77
2022/06/03 03:24:28;;;;;;;;;;;;;;;22.59;45.59;99878.88;6237720;23;19923;-76
2022/06/03 03:27:14;;;;;;;;;;;;;;;22.63;45.13;99876.59;6221088;23;19920;-77
2022/06/03 03:29:46;;;;;;;;;;;;;;;22.66;44.63;99873.50;6220997;23;19927;-77
2022/06/03 03:32:22;;;;;;;;;;;;;;;22.71;44.83;99863.72;6245322;23;19973;-76
2022/06/03 03:35:15;;;;;;;;;;;;;;;22.76;44.77;99861.31;6247474;22;19930;-76
2022/06/03 03:37:43;;;;;;;;;;;;;;;22.86;44.61;99876.50;6217185;23;20344;-75
2022/06/03 03:40:32;;;;;;;;;;;;;;;22.93;44.55;99866.56;6245680;23;19973;-77
2022/06/03 03:42:58;;;;;;;;;;;;;;;23.06;44.72;99865.91;6220341;23;20343;-76
2022/06/03 03:45:27;;;;;;;;;;;;;;;23.16;44.13;99869.16;6195451;23;19920;-77
2022/06/03 03:48:11;;;;;;;;;;;;;;;23.24;44.32;99866.31;6220238;23;20003;-78
2022/06/03 03:50:56;;;;;;;;;;;;;;;23.20;43.84;99878.66;6247205;23;19926;-82
2022/06/03 03:53:41;;;;;;;;;;;;;;;23.26;43.96;99873.28;6246519;23;19923;-76
2022/06/03 03:56:06;;;;;;;;;;;;;;;23.33;43.82;99873.34;6220192;23;19927;-79
2022/06/03 03:58:38;;;;;;;;;;;;;;;23.39;43.83;99866.28;6220312;23;19924;-80
2022/06/03 04:01:03;;;;;;;;;;;;;;;23.54;43.74;99872.53;6222605;23;19919;-77
2022/06/03 04:03:41;;;;;;;;;;;;;;;23.65;43.51;99866.53;6245551;23;19920;-78
2022/06/03 04:06:16;;;;;;;;;;;;;;;23.80;43.24;99863.78;6246810;23;19966;-76
2022/06/03 04:08:47;;;;;;;;;;;;;;;23.87;43.20;99864.69;6248782;23;19919;-76
2022/06/03 04:11:26;;;;;;;;;;;;;;;23.98;42.90;99868.78;6220686;23;19996;-77
2022/06/03 04:13:52;;;;;;;;;;;;;;;24.08;42.77;99865.72;6219857;23;19926;-77
2022/06/03 04:16:18;;;;;;;;;;;;;;;24.21;42.65;99865.81;6246938;22;19924;-77
2022/06/03 04:18:44;;;;;;;;;;;;;;;24.27;42.61;99859.56;6219572;23;19919;-77
2022/06/03 04:21:15;;;;;;;;;;;;;;;24.31;42.69;99866.31;6247028;23;19967;-76
2022/06/03 04:23:41;;;;;;;;;;;;;;;24.29;43.03;99860.19;6218985;23;19919;-76
2022/06/03 04:26:12;;;;;;;;;;;;;;;24.28;43.23;99860.41;6245121;23;20014;-76
2022/06/03 04:28:43;;;;;;;;;;;;;;;24.15;43.18;99862.00;6219924;23;19920;-76
2022/06/03 04:31:35;;;;;;;;;;;;;;;24.16;43.11;99857.38;6244432;23;20348;-75
2022/06/03 04:34:24;;;;;;;;;;;;;;;24.21;43.15;99854.88;6220394;23;19927;-76
2022/06/03 04:36:53;;;;;;;;;;;;;;;24.28;43.12;99855.78;6244742;23;20255;-79
2022/06/03 04:39:30;;;;;;;;;;;;;;;24.41;43.15;99853.19;6243690;23;19919;-78
2022/06/03 04:42:31;;;;;;;;;;;;;;;24.61;42.71;99847.84;6244922;23;19950;-77
2022/06/03 04:45:16;;;;;;;;;;;;;;;24.68;42.11;99850.63;6244392;23;20279;-77
2022/06/03 04:47:48;;;;;;;;;;;;;;;24.77;42.41;99854.00;6244548;23;20247;-77
2022/06/03 04:50:32;;;;;;;;;;;;;;;24.82;41.79;99846.03;6219802;23;19919;-76
2022/06/03 04:53:04;;;;;;;;;;;;;;;24.84;41.10;99855.75;6245717;23;19931;-77
2022/06/03 04:55:30;;;;;;;;;;;;;;;24.89;41.43;99852.38;6219023;23;19926;-77
2022/06/03 04:58:15;;;;;;;;;;;;;;;25.04;41.20;99849.50;6219735;23;19943;-77
2022/06/03 05:00:56;;;;;;;;;;;;;;;25.22;41.40;99848.97;6244834;23;19919;-78
2022/06/03 05:03:40;;;;;;;;;;;;;;;25.41;40.92;99849.03;6219401;23;19919;-77
2022/06/03 05:06:35;;;;;;;;;;;;;;;25.51;40.48;99839.59;6245026;23;19951;-78
2022/06/03 05:09:20;;;;;;;;;;;;;;;25.45;40.64;99841.25;6191218;22;19920;-78
2022/06/03 05:12:02;;;;;;;;;;;;;;;25.41;39.42;99845.44;6245575;23;20348;-76
2022/06/03 05:14:34;;;;;;;;;;;;;;;25.54;38.76;99841.88;6246117;22;19922;-76
2022/06/03 05:17:12;;;;;;;;;;;;;;;25.43;38.83;99838.72;6194138;23;19927;-79
2022/06/03 05:20:07;;;;;;;;;;;;;;;25.32;38.28;99838.50;6243763;23;19935;-78
2022/06/03 05:22:36;;;;;;;;;;;;;;;25.26;37.44;99831.94;6230303;23;20053;-79
2022/06/03 05:25:02;;;;;;;;;;;;;;;25.23;37.75;99829.59;6218996;23;19920;-79
2022/06/03 05:27:47;;;;;;;;;;;;;;;25.38;37.52;99830.28;6218977;23;19919;-77
2022/06/03 05:30:31;;;;;;;;;;;;;;;25.44;37.25;99823.97;6244550;23;19919;-77
2022/06/03 05:33:16;;;;;;;;;;;;;;;25.68;37.10;99822.53;6219364;23;19919;-78
2022/06/03 05:35:42;;;;;;;;;;;;;;;25.84;37.47;99818.59;6244566;23;20300;-78
2022/06/03 05:38:17;;;;;;;;;;;;;;;25.60;34.57;99816.44;6193369;23;19926;-78
2022/06/03 05:40:43;;;;;;;;;;;;;;;25.53;35.03;99808.19;6245328;22;19951;-78
2022/06/03 05:43:16;;;;;;;;;;;;;;;25.74;35.04;99804.44;6245970;22;19923;-76
2022/06/03 05:45:51;;;;;;;;;;;;;;;25.83;34.67;99813.31;6218859;23;19920;-77
2022/06/03 05:48:25;;;;;;;;;;;;;;;25.96;34.26;99809.75;6218972;23;19973;-79
2022/06/03 05:51:06;;;;;;;;;;;;;;;26.02;33.00;99806.97;6219225;23;19927;-82
2022/06/03 05:54:04;;;;;;;;;;;;;;;26.06;33.46;99810.13;6218371;23;19929;-78
2022/06/03 05:56:49;;;;;;;;;;;;;;;25.81;33.19;99813.53;6185411;23;19920;-76
2022/06/03 05:59:33;;;;;;;;;;;;;;;26.13;33.12;99816.47;6219097;23;19919;-76
2022/06/03 06:01:59;;;;;;;;;;;;;;;26.32;32.95;99809.25;6244331;23;20323;-76
2022/06/03 06:04:44;;;;;;;;;;;;;;;26.48;33.03;99811.59;6244460;23;19926;-78
2022/06/03 06:07:28;;;;;;;;;;;;;;;26.64;32.70;99811.13;6219648;23;19923;-77
2022/06/03 06:10:04;;;;;;;;;;;;;;;26.94;32.76;99801.50;6220174;23;20263;-78
2022/06/03 06:12:49;;;;;;;;;;;;;;;27.33;30.71;99801.31;6219123;23;19926;-77
2022/06/03 06:15:33;;;;;;;;;;;;;;;27.60;30.37;99799.22;6244658;23;19927;-77
2022/06/03 06:18:00;;;;;;;;;;;;;;;27.40;30.25;99805.94;6219419;23;19955;-78
2022/06/03 06:20:44;;;;;;;;;;;;;;;27.68;29.63;99803.59;6219708;23;19919;-77
2022/06/03 06:23:31;;;;;;;;;;;;;;;27.99;29.80;99799.16;6219179;23;20260;-78
2022/06/03 06:25:56;;;;;;;;;;;;;;;27.86;30.11;99805.59;6208902;23;19919;-77
2022/06/03 06:28:41;;;;;;;;;;;;;;;27.49;30.39;99804.59;6246436;22;20259;-77
2022/06/03 06:31:06;;;;;;;;;;;;;;;27.44;30.76;99801.69;6244283;23;20282;-76
2022/06/03 06:34:02;;;;;;;;;;;;;;;27.52;30.43;99809.63;6219174;23;19973;-77
2022/06/03 06:36:49;;;;;;;;;;;;;;;27.12;29.85;99801.66;6231207;23;19919;-77
2022/06/03 06:39:24;;;;;;;;;;;;;;;26.60;29.74;99800.81;6219404;23;19973;-77
2022/06/03 06:42:08;;;;;;;;;;;;;;;26.54;29.38;99804.41;6244654;23;19947;-77
2022/06/03 06:44:40;;;;;;;;;;;;;;;26.99;29.18;99791.56;6219360;23;20002;-76
2022/06/03 06:47:06;;;;;;;;;;;;;;;27.42;28.25;99796.41;6194507;23;19920;-76
2022/06/03 06:49:44;;;;;;;;;;;;;;;27.70;28.22;99801.47;6218863;23;19919;-76
2022/06/03 06:52:30;;;;;;;;;;;;;;;27.89;28.00;99790.59;6218220;23;19984;-75
2022/06/03 06:55:07;;;;;;;;;;;;;;;28.05;28.49;99799.09;6182946;23;20347;-78
2022/06/03 06:57:36;;;;;;;;;;;;;;;27.77;28.04;99801.47;6194090;23;19920;-76
2022/06/03 07:00:28;;;;;;;;;;;;;;;27.42;27.64;99801.03;6218653;23;19919;-76
2022/06/03 07:03:04;;;;;;;;;;;;;;;27.43;28.82;99789.03;6190655;23;19989;-78
2022/06/03 07:05:30;;;;;;;;;;;;;;;27.57;27.45;99813.41;6193965;23;19920;-77
2022/06/03 07:07:56;;;;;;;;;;;;;;;27.36;28.14;99795.38;6195649;23;19919;-76
2022/06/03 07:10:24;;;;;;;;;;;;;;;27.38;27.51;99797.06;6195087;23;20351;-77
2022/06/03 07:12:56;;;;;;;;;;;;;;;27.29;27.49;99791.00;6195608;23;19919;-78
2022/06/03 07:15:27;;;;;;;;;;;;;;;27.42;27.30;99792.81;6220722;23;19973;-78
2022/06/03 07:20:58;;;;;;;;;;;;;;;27.70;26.97;99784.16;6246041;23;19966;-77
2022/06/03 07:23:34;;;;;;;;;;;;;;;28.15;27.00;99778.50;6196387;23;19919;-77
2022/06/03 07:26:10;;;;;;;;;;;;;;;28.42;26.77;99776.34;6195622;23;19962;-79
2022/06/03 07:28:40;;;;;;;;;;;;;;;28.42;25.93;99787.34;6196102;23;20260;-76
2022/06/03 07:31:25;;;;;;;;;;;;;;;28.19;26.66;99780.56;6220145;23;19927;-76
2022/06/03 07:33:57;;;;;;;;;;;;;;;28.06;27.09;99788.97;6195585;23;19931;-77
2022/06/03 07:36:33;;;;;;;;;;;;;;;28.51;27.20;99777.72;6195934;23;20049;-79
2022/06/03 07:39:16;;;;;;;;;;;;;;;28.85;26.66;99770.75;6220979;23;19923;-76
2022/06/03 07:41:51;;;;;;;;;;;;;;;28.25;25.94;99776.94;6195952;23;19927;-80
2022/06/03 07:44:20;;;;;;;;;;;;;;;27.90;26.36;99767.53;6220582;23;19920;-77
2022/06/03 07:46:52;;;;;;;;;;;;;;;28.01;26.61;99772.28;6245895;23;19923;-77
2022/06/03 07:49:19;;;;;;;;;;;;;;;28.17;27.12;99790.97;6196422;23;19970;-80
2022/06/03 07:51:51;;;;;;;;;;;;;;;28.48;26.20;99776.28;6195680;23;20335;-79
2022/06/03 07:54:28;;;;;;;;;;;;;;;28.43;24.84;99778.03;6246366;23;19931;-77
2022/06/03 07:57:08;;;;;;;;;;;;;;;28.54;24.37;99774.50;6195426;23;19919;-78
2022/06/03 07:59:35;;;;;;;;;;;;;;;28.48;24.27;99764.44;6194954;23;19943;-79
2022/06/03 08:02:01;;;;;;;;;;;;;;;28.81;24.04;99766.75;6195355;23;19920;-79
2022/06/03 08:04:35;;;;;;;;;;;;;;;29.22;23.48;99766.00;6195545;23;20014;-77
2022/06/03 08:12:34;;;;;;;;;;;;;;;28.88;24.21;99769.44;6220367;23;19919;-77
2022/06/03 08:15:20;;;;;;;;;;;;;;;28.86;24.97;99766.09;6219995;23;19999;-76
2022/06/03 08:17:47;;;;;;;;;;;;;;;29.19;24.68;99761.00;6194542;23;19920;-78
2022/06/03 08:20:18;;;;;;;;;;;;;;;29.51;24.00;99760.72;6195169;23;19927;-76
2022/06/03 08:22:45;;;;;;;;;;;;;;;29.47;23.80;99751.25;6220332;23;19919;-77
2022/06/03 08:25:13;;;;;;;;;;;;;;;29.68;24.25;99745.22;6195126;23;19942;-79
2022/06/03 08:27:40;;;;;;;;;;;;;;;29.95;23.70;99753.00;6195591;23;19924;-79
2022/06/03 08:30:10;;;;;;;;;;;;;;;29.73;24.08;99764.59;6245763;23;20020;-77
2022/06/03 08:32:40;;;;;;;;;;;;;;;29.58;23.75;99747.69;6219947;23;19919;-80
2022/06/03 08:35:08;;;;;;;;;;;;;;;30.01;24.08;99735.50;6221817;23;20006;-77
2022/06/03 08:37:35;;;;;;;;;;;;;;;30.37;23.74;99734.41;6245571;23;19954;-77
2022/06/03 08:40:15;;;;;;;;;;;;;;;30.05;23.70;99747.72;6196638;23;19946;-79
2022/06/03 08:42:48;;;;;;;;;;;;;;;29.87;23.59;99734.91;6196062;23;19919;-81
2022/06/03 08:45:20;;;;;;;;;;;;;;;30.26;23.32;99734.44;6195445;23;19926;-78
2022/06/03 08:47:50;;;;;;;;;;;;;;;30.54;23.47;99734.50;6221386;23;20247;-78
2022/06/03 08:50:26;;;;;;;;;;;;;;;30.81;22.97;99728.47;6220855;23;19942;-78
2022/06/03 08:53:04;;;;;;;;;;;;;;;31.04;22.09;99733.88;6195323;23;19926;-80
2022/06/03 08:55:41;;;;;;;;;;;;;;;30.77;22.07;99727.25;6245247;23;19943;-79
2022/06/03 08:58:30;;;;;;;;;;;;;;;30.32;22.40;99725.22;6245673;23;19934;-79
2022/06/03 09:00:59;;;;;;;;;;;;;;;30.34;22.74;99723.03;6215164;23;19969;-78
2022/06/03 09:03:28;;;;;;;;;;;;;;;30.75;22.94;99721.16;6219781;23;19925;-79
2022/06/03 09:06:01;;;;;;;;;;;;;;;30.75;22.40;99718.38;6219841;23;19927;-78
2022/06/03 09:08:33;;;;;;;;;;;;;;;31.12;22.25;99721.59;6195004;23;20303;-78
2022/06/03 09:11:04;;;;;;;;;;;;;;;31.57;21.49;99707.75;6195223;23;19920;-77
2022/06/03 09:13:35;;;;;;;;;;;;;;;31.61;21.33;99722.75;6194618;23;19924;-77
2022/06/03 09:16:03;;;;;;;;;;;;;;;31.18;21.40;99718.69;6193634;23;19990;-77
2022/06/03 09:18:31;;;;;;;;;;;;;;;30.90;21.28;99716.75;6218005;23;20003;-79
2022/06/03 09:21:03;;;;;;;;;;;;;;;30.90;21.14;99710.41;6218118;23;19920;-78
2022/06/03 09:23:32;;;;;;;;;;;;;;;31.18;21.21;99709.53;6193074;23;19927;-78
2022/06/03 09:25:58;;;;;;;;;;;;;;;31.78;20.97;99706.13;6218138;23;19930;-79
2022/06/03 09:28:26;;;;;;;;;;;;;;;31.48;21.11;99706.47;6192923;23;19998;-77
2022/06/03 09:30:52;;;;;;;;;;;;;;;31.61;21.57;99695.09;6217970;23;19946;-78
2022/06/03 09:33:20;;;;;;;;;;;;;;;31.95;21.27;99699.78;6193440;23;19969;-79
2022/06/03 09:35:51;;;;;;;;;;;;;;;32.14;20.77;99704.78;6216935;23;20356;-77
2022/06/03 09:38:19;;;;;;;;;;;;;;;32.60;20.66;99699.00;6218335;23;19995;-79
2022/06/03 09:40:47;;;;;;;;;;;;;;;32.49;20.17;99684.22;6193074;23;19998;-78
2022/06/03 09:43:21;;;;;;;;;;;;;;;32.93;19.95;99700.78;6243220;23;19941;-78
2022/06/03 09:45:50;;;;;;;;;;;;;;;33.02;19.87;99690.91;6217651;23;20355;-78
2022/06/03 09:48:17;;;;;;;;;;;;;;;33.38;20.03;99690.44;6192964;23;19939;-78
2022/06/03 09:50:51;;;;;;;;;;;;;;;33.74;19.62;99689.63;6192935;23;20343;-77
2022/06/03 09:53:21;;;;;;;;;;;;;;;33.33;19.12;99689.28;6193466;23;20264;-80
2022/06/03 09:55:51;;;;;;;;;;;;;;;33.52;19.88;99691.69;6193343;23;19998;-77
2022/06/03 09:58:19;;;;;;;;;;;;;;;33.85;19.68;99679.41;6218191;23;19933;-77
2022/06/03 10:00:47;;;;;;;;;;;;;;;33.90;18.93;99682.25;6244132;23;19926;-78
2022/06/03 10:03:14;;;;;;;;;;;;;;;33.40;19.21;99686.31;6243584;23;19920;-77
2022/06/03 10:05:42;;;;;;;;;;;;;;;33.25;19.25;99686.13;6193840;23;19927;-79
2022/06/03 10:08:10;;;;;;;;;;;;;;;33.82;19.46;99677.22;6219288;23;19920;-79
2022/06/03 10:13:20;;;;;;;;;;;;;;;34.46;18.53;99673.41;6243351;23;19920;-76
2022/06/03 10:15:56;;;;;;;;;;;;;;;34.60;18.52;99671.78;6192702;23;19926;-78
2022/06/03 10:18:28;;;;;;;;;;;;;;;34.44;19.04;99662.56;6217530;23;19945;-77
2022/06/03 10:20:55;;;;;;;;;;;;;;;34.27;19.02;99673.03;6217964;23;20002;-76
2022/06/03 10:23:22;;;;;;;;;;;;;;;34.76;19.05;99673.53;6218483;23;19919;-78
2022/06/03 10:25:51;;;;;;;;;;;;;;;35.30;19.07;99669.44;6194006;23;19919;-78
2022/06/03 10:28:17;;;;;;;;;;;;;;;35.32;18.41;99663.59;6243803;23;20402;-78
2022/06/03 10:30:44;;;;;;;;;;;;;;;35.73;18.51;99647.72;6218762;23;19920;-77
2022/06/03 10:33:17;;;;;;;;;;;;;;;36.38;17.69;99659.81;6243707;23;19923;-78
2022/06/03 10:35:44;;;;;;;;;;;;;;;36.93;17.62;99646.69;6245259;23;19920;-78
2022/06/03 10:38:10;;;;;;;;;;;;;;;37.36;17.51;99646.13;6193885;23;19930;-77
2022/06/03 10:40:39;;;;;;;;;;;;;;;37.61;16.98;99645.91;6193746;23;19958;-79
2022/06/03 10:43:06;;;;;;;;;;;;;;;36.77;17.01;99642.34;6195521;23;19920;-78
2022/06/03 10:45:35;;;;;;;;;;;;;;;35.63;17.92;99642.22;6220352;23;19950;-80
2022/06/03 10:48:34;;;;;;;;;;;;;;;34.98;18.58;99628.84;6218318;23;19945;-77
2022/06/03 10:51:14;;;;;;;;;;;;;;;35.56;18.00;99620.25;6195360;23;19926;-78
2022/06/03 11:01:59;;;;;;;;;;;;;;;37.78;17.14;99620.34;6193827;23;19919;-79
2022/06/03 11:04:39;;;;;;;;;;;;;;;37.80;17.03;99618.09;6219522;23;19923;-81
2022/06/03 11:07:40;;;;;;;;;;;;;;;37.20;17.00;99620.34;6245703;23;19972;-79
2022/06/03 11:10:08;;;;;;;;;;;;;;;37.71;16.53;99619.03;6101316;23;19921;-78
2022/06/03 11:12:35;;;;;;;;;;;;;;;38.89;16.00;99610.00;6197529;23;19919;-77
2022/06/03 11:15:00;;;;;;;;;;;;;;;38.84;15.37;99606.16;6219624;23;19927;-76
2022/06/03 11:17:37;;;;;;;;;;;;;;;38.25;15.69;99610.28;6219671;23;19945;-78
2022/06/03 11:20:16;;;;;;;;;;;;;;;37.57;16.70;99607.72;6193293;23;19926;-78
2022/06/03 11:22:45;;;;;;;;;;;;;;;37.98;16.31;99602.53;6220896;23;19927;-78
2022/06/03 11:25:21;;;;;;;;;;;;;;;38.01;16.41;99601.13;6247718;23;19920;-77
2022/06/03 11:27:47;;;;;;;;;;;;;;;38.73;15.91;99601.00;6197711;23;20336;-77
2022/06/03 11:30:16;;;;;;;;;;;;;;;38.45;16.17;99588.84;6199268;23;19964;-78
2022/06/03 11:32:44;;;;;;;;;;;;;;;39.27;15.40;99594.00;6225807;23;20394;-77
2022/06/03 11:35:38;;;;;;;;;;;;;;;38.71;15.28;99590.13;6222383;23;19930;-77
2022/06/03 11:38:05;;;;;;;;;;;;;;;38.57;15.87;99592.03;6193256;23;19966;-78
2022/06/03 11:40:34;;;;;;;;;;;;;;;39.42;15.72;99587.28;6247795;22;19981;-78
2022/06/03 11:43:20;;;;;;;;;;;;;;;39.84;15.22;99591.03;6220850;23;19923;-77
2022/06/03 11:45:57;;;;;;;;;;;;;;;39.66;14.96;99579.56;6209694;23;20336;-78
2022/06/03 11:48:43;;;;;;;;;;;;;;;40.13;14.58;99576.69;6195206;23;19919;-81
2022/06/03 11:51:09;;;;;;;;;;;;;;;40.23;14.64;99576.47;6246254;23;19923;-78
2022/06/03 11:53:37;;;;;;;;;;;;;;;39.06;15.28;99571.97;6195525;23;20256;-78
2022/06/03 11:56:05;;;;;;;;;;;;;;;37.94;16.24;99575.53;6220320;23;19920;-76
2022/06/03 11:58:50;;;;;;;;;;;;;;;37.10;17.13;99567.47;6245640;23;19962;-78
2022/06/03 12:01:34;;;;;;;;;;;;;;;35.37;18.78;99566.31;6219912;23;19951;-78
2022/06/03 12:04:09;;;;;;;;;;;;;;;35.40;19.15;99569.38;6196606;23;20347;-77
2022/06/03 12:06:44;;;;;;;;;;;;;;;34.96;19.29;99564.38;6195566;23;20359;-77
2022/06/03 12:09:13;;;;;;;;;;;;;;;34.51;19.54;99554.91;6245736;23;19927;-77
2022/06/03 12:14:42;;;;;;;;;;;;;;;35.48;19.37;99560.47;6246173;23;20255;-77
2022/06/03 12:17:11;;;;;;;;;;;;;;;35.34;18.49;99551.03;6221008;23;19926;-77
2022/06/03 12:19:40;;;;;;;;;;;;;;;34.51;19.23;99557.69;6195729;23;20011;-76
2022/06/03 12:22:33;;;;;;;;;;;;;;;35.16;19.31;99543.28;6219840;23;20343;-77
2022/06/03 12:25:03;;;;;;;;;;;;;;;36.33;18.04;99551.25;6191522;23;20011;-78
2022/06/03 12:27:29;;;;;;;;;;;;;;;36.95;18.06;99546.97;6246865;23;19920;-77
2022/06/03 12:30:00;;;;;;;;;;;;;;;38.60;16.94;99541.13;6196900;23;19958;-77
2022/06/03 12:32:28;;;;;;;;;;;;;;;39.15;15.87;99540.50;6221555;23;19919;-79
2022/06/03 12:35:13;;;;;;;;;;;;;;;37.20;16.49;99542.28;6197759;23;19943;-77
2022/06/03 12:37:38;;;;;;;;;;;;;;;34.81;19.43;99533.84;6220666;23;19919;-86
2022/06/03 12:40:20;;;;;;;;;;;;;;;33.49;21.70;99537.84;6245249;23;19920;-79
2022/06/03 12:42:46;;;;;;;;;;;;;;;32.05;23.90;99539.56;6245999;23;19923;-79
2022/06/03 12:45:15;;;;;;;;;;;;;;;30.38;26.41;99553.22;6192491;23;19926;-77
2022/06/03 12:47:45;;;;;;;;;;;;;;;30.21;26.64;99543.00;6194732;23;19945;-77
2022/06/03 12:50:23;;;;;;;;;;;;;;;29.58;27.71;99538.34;6219102;23;19922;-80
2022/06/03 12:52:49;;;;;;;;;;;;;;;29.37;27.72;99541.69;6194853;23;19927;-78
2022/06/03 12:55:15;;;;;;;;;;;;;;;29.23;28.56;99541.13;6245856;23;19946;-78
2022/06/03 12:57:54;;;;;;;;;;;;;;;29.50;28.24;99535.94;6193482;23;20300;-77
2022/06/03 13:00:32;;;;;;;;;;;;;;;29.89;27.96;99536.22;6194411;23;19963;-77
2022/06/03 13:03:01;;;;;;;;;;;;;;;30.18;28.22;99526.09;6244255;23;19919;-75
2022/06/03 13:06:08;;;;;;;;;;;;;;;32.16;26.45;99531.13;6218489;23;20288;-80
2022/06/03 13:08:34;;;;;;;;;;;;;;;33.88;23.25;99509.72;6187670;23;19927;-76
2022/06/03 13:11:07;;;;;;;;;;;;;;;34.34;22.76;99509.91;6187571;23;19928;-76
2022/06/03 13:13:36;;;;;;;;;;;;;;;34.75;21.96;99512.72;6166414;23;20343;-76
2022/06/03 13:16:17;;;;;;;;;;;;;;;36.07;20.81;99514.41;6244139;23;19974;-74
2022/06/03 13:18:53;;;;;;;;;;;;;;;37.00;19.79;99509.03;6245884;23;20402;-76
2022/06/03 13:21:28;;;;;;;;;;;;;;;37.31;19.65;99510.41;6244031;23;19934;-75
2022/06/03 13:23:56;;;;;;;;;;;;;;;37.11;18.98;99507.81;6245403;22;19926;-74
2022/06/03 13:26:22;;;;;;;;;;;;;;;37.17;18.99;99512.22;6193873;23;19919;-78
2022/06/03 13:28:51;;;;;;;;;;;;;;;37.02;19.08;99515.16;6218391;23;20303;-76
2022/06/03 13:31:22;;;;;;;;;;;;;;;36.83;19.36;99498.31;6243815;23;19926;-77
2022/06/03 13:34:00;;;;;;;;;;;;;;;36.51;19.33;99507.19;6193450;23;19923;-77
2022/06/03 13:36:34;;;;;;;;;;;;;;;37.83;18.97;99500.28;6215375;23;19923;-77
2022/06/03 13:39:01;;;;;;;;;;;;;;;38.67;17.74;99513.66;6216087;23;20363;-77
2022/06/03 13:44:36;;;;;;;;;;;;;;;38.10;17.20;99505.28;6190465;23;19919;-78
2022/06/03 13:47:04;;;;;;;;;;;;;;;37.48;17.48;99503.53;6204607;23;19924;-76
2022/06/03 13:49:31;;;;;;;;;;;;;;;36.80;17.80;99499.69;6180092;23;19924;-76
2022/06/03 13:52:03;;;;;;;;;;;;;;;35.56;19.13;99497.09;6179998;23;20323;-75
2022/06/03 13:54:37;;;;;;;;;;;;;;;33.94;20.63;99503.09;6155498;23;20382;-77